Time;durP1;ratioP1;P1;durP2;ratioP2;P2;SDS_P1;SDS_P2;PMS_P1;PMS_P2;Temp;Humidity;BMP_temperature;BMP_pressure;BME280_temperature;BME280_humidity;BME280_pressure;Samples;Min_cycle;Max_cycle;Signal;HPM_P1;HPM_P2
2023/11/12 08:00:39;;;;;;;2.75;1.52;;;;;;;;;;5867820;23;20125;-88
2023/11/12 15:01:42;;;;;;;6.70;4.55;;;;;;;;;;5185886;23;20051;-87
2023/11/12 15:04:08;;;;;;;3.40;2.22;;;;;;;;;;4954224;29;20050;-87
2023/11/12 15:06:33;;;;;;;5.88;4.60;;;;;;;;;;4955604;28;20039;-87
2023/11/12 15:08:59;;;;;;;50.15;29.55;;;;;;;;;;4955943;29;20023;-87
2023/11/12 15:11:24;;;;;;;11.13;6.85;;;;;;;;;;4954519;29;20078;-87
2023/11/12 15:13:51;;;;;;;13.88;8.20;;;;;;;;;;4955478;28;20031;-87
2023/11/12 15:16:18;;;;;;;1.90;1.80;;;;;;;;;;4954828;28;20032;-86
2023/11/12 15:18:43;;;;;;;2.85;1.88;;;;;;;;;;4955765;28;20050;-86
2023/11/12 15:21:09;;;;;;;4.63;1.90;;;;;;;;;;4955525;28;20059;-87
2023/11/12 15:23:35;;;;;;;1.88;1.70;;;;;;;;;;4955857;28;20035;-88
2023/11/12 15:26:00;;;;;;;2.00;1.58;;;;;;;;;;4954927;29;20086;-87
2023/11/12 15:28:28;;;;;;;1.75;1.52;;;;;;;;;;4955502;28;20027;-86
2023/11/12 15:30:55;;;;;;;2.35;1.63;;;;;;;;;;4955855;28;20082;-85
2023/11/12 15:33:21;;;;;;;2.53;2.17;;;;;;;;;;4955730;28;20027;-88
2023/11/12 15:35:49;;;;;;;2.13;1.60;;;;;;;;;;4954482;29;20031;-88
2023/11/12 15:38:15;;;;;;;2.00;1.80;;;;;;;;;;4954238;28;20027;-87
2023/11/12 20:15:42;;;;;;;23.02;13.85;;;;;;;;;;4955668;29;20138;-86
2023/11/12 20:18:09;;;;;;;184.20;104.13;;;;;;;;;;4958913;28;20073;-86
2023/11/12 20:20:38;;;;;;;148.35;78.97;;;;;;;;;;4959100;28;20028;-86
2023/11/12 20:23:06;;;;;;;63.53;32.93;;;;;;;;;;4958825;28;20033;-90
2023/11/12 20:25:35;;;;;;;70.18;32.45;;;;;;;;;;4958949;28;20031;-85
2023/11/12 20:28:02;;;;;;;78.18;29.45;;;;;;;;;;4958914;28;20442;-86
2023/11/12 20:30:29;;;;;;;49.92;21.25;;;;;;;;;;4959052;28;20030;-86
2023/11/12 20:32:54;;;;;;;141.05;63.70;;;;;;;;;;4957063;28;20031;-87
2023/11/12 20:35:20;;;;;;;356.23;133.73;;;;;;;;;;4957164;28;20039;-85
2023/11/12 20:37:46;;;;;;;61.50;24.77;;;;;;;;;;4958624;28;20465;-86
2023/11/12 20:40:12;;;;;;;13.07;7.22;;;;;;;;;;4958922;28;20026;-86
2023/11/12 20:42:42;;;;;;;87.32;36.17;;;;;;;;;;4958126;28;20027;-86
2023/11/12 20:45:12;;;;;;;312.73;130.70;;;;;;;;;;4957296;28;20026;-86
2023/11/12 20:47:37;;;;;;;151.02;60.75;;;;;;;;;;4958438;28;20038;-85
2023/11/12 20:50:04;;;;;;;60.47;25.60;;;;;;;;;;4958580;28;20370;-87
2023/11/12 20:52:31;;;;;;;22.80;11.82;;;;;;;;;;4957177;28;20028;-86
2023/11/12 20:54:58;;;;;;;15.32;9.13;;;;;;;;;;4958495;28;20385;-86
2023/11/12 20:57:24;;;;;;;14.50;8.60;;;;;;;;;;4958219;28;20023;-86
2023/11/12 20:59:49;;;;;;;16.20;8.90;;;;;;;;;;4956923;28;20035;-86
2023/11/12 21:02:17;;;;;;;11.00;6.88;;;;;;;;;;4956839;28;20078;-87
2023/11/12 21:04:42;;;;;;;8.73;5.60;;;;;;;;;;4956756;28;20486;-87
2023/11/12 21:07:08;;;;;;;6.90;5.65;;;;;;;;;;4958205;29;20034;-86
2023/11/12 21:09:34;;;;;;;6.63;5.70;;;;;;;;;;4956750;28;20027;-87
2023/11/12 21:12:05;;;;;;;9.55;6.13;;;;;;;;;;4956669;28;20031;-86
2023/11/12 21:14:34;;;;;;;8.02;6.03;;;;;;;;;;4957169;28;20023;-89
2023/11/12 21:17:01;;;;;;;8.57;6.32;;;;;;;;;;4977053;28;20081;-86
2023/11/12 21:19:26;;;;;;;7.63;6.50;;;;;;;;;;4977094;28;20027;-89
2023/11/12 21:21:53;;;;;;;5.60;4.03;;;;;;;;;;4959739;28;20513;-88
2023/11/12 21:24:18;;;;;;;6.10;4.35;;;;;;;;;;4959815;28;20109;-86
2023/11/12 21:26:45;;;;;;;7.18;4.70;;;;;;;;;;4977332;28;20506;-88
2023/11/12 21:29:10;;;;;;;7.15;5.38;;;;;;;;;;4977094;28;20135;-88
2023/11/12 21:31:37;;;;;;;6.43;4.68;;;;;;;;;;4976904;28;20114;-88
2023/11/12 21:34:03;;;;;;;7.60;5.65;;;;;;;;;;4959390;28;20042;-89
2023/11/12 21:36:29;;;;;;;6.18;4.22;;;;;;;;;;4959475;28;20031;-88
2023/11/12 21:38:55;;;;;;;4.72;3.78;;;;;;;;;;4959376;28;20367;-88
2023/11/12 21:41:23;;;;;;;5.28;4.22;;;;;;;;;;4976626;28;20029;-88
2023/11/12 21:43:51;;;;;;;6.38;4.25;;;;;;;;;;4959165;28;20074;-88
2023/11/12 21:46:17;;;;;;;7.00;4.13;;;;;;;;;;4976538;28;20077;-87
2023/11/12 21:48:42;;;;;;;4.60;3.20;;;;;;;;;;4959222;28;20481;-88
2023/11/12 21:51:08;;;;;;;4.47;3.55;;;;;;;;;;4959026;28;20019;-88
2023/11/12 21:53:35;;;;;;;4.07;3.67;;;;;;;;;;4976349;28;20027;-88
2023/11/12 21:56:02;;;;;;;6.28;4.13;;;;;;;;;;4959001;28;20065;-87
2023/11/12 21:58:28;;;;;;;5.70;3.90;;;;;;;;;;4959238;28;20485;-88
2023/11/12 22:00:53;;;;;;;5.20;4.07;;;;;;;;;;4958933;28;20099;-88
2023/11/12 22:03:19;;;;;;;7.68;4.88;;;;;;;;;;4976307;28;20022;-87
2023/11/12 22:05:45;;;;;;;6.63;5.03;;;;;;;;;;4958908;28;20035;-88
2023/11/12 22:08:11;;;;;;;4.50;3.70;;;;;;;;;;4976245;28;20026;-88
2023/11/12 22:10:37;;;;;;;4.75;3.75;;;;;;;;;;4976161;28;20162;-88
2023/11/12 22:13:02;;;;;;;5.10;3.63;;;;;;;;;;4975897;28;20090;-92
2023/11/12 22:15:28;;;;;;;7.60;4.90;;;;;;;;;;4976044;28;20046;-89
2023/11/12 22:17:54;;;;;;;5.90;4.00;;;;;;;;;;4976123;28;20050;-88
2023/11/12 22:20:19;;;;;;;5.28;3.92;;;;;;;;;;4958866;28;20053;-89
2023/11/12 22:22:46;;;;;;;5.53;3.47;;;;;;;;;;4958733;28;20113;-88
2023/11/12 22:25:13;;;;;;;6.80;4.13;;;;;;;;;;4951023;28;20439;-88
2023/11/12 22:27:48;;;;;;;6.20;4.10;;;;;;;;;;4966126;28;20034;-88
2023/11/12 22:30:15;;;;;;;5.72;3.85;;;;;;;;;;4965365;28;20058;-87
2023/11/12 22:32:42;;;;;;;4.15;2.80;;;;;;;;;;4961790;28;20063;-88
2023/11/12 22:35:11;;;;;;;4.68;2.90;;;;;;;;;;4939347;29;20039;-88
2023/11/12 22:37:37;;;;;;;3.40;3.10;;;;;;;;;;4956518;29;20033;-88
2023/11/12 22:40:04;;;;;;;3.90;2.80;;;;;;;;;;4956197;28;20027;-88
2023/11/12 22:42:30;;;;;;;7.95;2.80;;;;;;;;;;4938999;29;20050;-89
2023/11/12 22:44:56;;;;;;;3.53;2.40;;;;;;;;;;4938935;29;20505;-89
2023/11/12 22:47:22;;;;;;;2.88;2.30;;;;;;;;;;4956247;29;20027;-88
2023/11/12 22:49:48;;;;;;;2.22;1.85;;;;;;;;;;4956209;28;20082;-88
2023/11/12 22:52:14;;;;;;;5.45;2.47;;;;;;;;;;4956322;29;20410;-88
2023/11/12 22:54:41;;;;;;;2.78;2.40;;;;;;;;;;4956111;28;20084;-89
2023/11/12 22:57:08;;;;;;;3.22;2.38;;;;;;;;;;4938586;29;20031;-89
2023/11/12 22:59:35;;;;;;;3.42;2.67;;;;;;;;;;4956101;28;20437;-88
2023/11/12 23:02:02;;;;;;;4.93;3.25;;;;;;;;;;4938572;29;20035;-88
2023/11/12 23:04:27;;;;;;;17.17;8.15;;;;;;;;;;4956142;29;20019;-88
2023/11/12 23:06:53;;;;;;;48.33;22.52;;;;;;;;;;4955932;28;20031;-89
2023/11/12 23:09:21;;;;;;;16.08;8.77;;;;;;;;;;4956025;28;20030;-87
2023/11/12 23:11:47;;;;;;;17.38;7.75;;;;;;;;;;4955756;28;20473;-88
2023/11/12 23:14:12;;;;;;;68.07;29.05;;;;;;;;;;4955907;28;20046;-88
2023/11/12 23:16:38;;;;;;;37.20;15.48;;;;;;;;;;4955813;28;20043;-90
2023/11/12 23:19:06;;;;;;;37.35;16.98;;;;;;;;;;4938786;29;20027;-88
2023/11/12 23:21:31;;;;;;;16.73;8.02;;;;;;;;;;4938532;29;20377;-88
